Time;durP1;ratioP1;P1;durP2;ratioP2;P2;SDS_P1;SDS_P2;PMS_P1;PMS_P2;Temp;Humidity;BMP_temperature;BMP_pressure;BME280_temperature;BME280_humidity;BME280_pressure;Samples;Min_cycle;Max_cycle;Signal;HPM_P1;HPM_P2
2022/03/19 00:00:55;;;;;;;26.23;3.30;;;4.70;99.90;;;;;;5109433;27;20446;-66
2022/03/19 00:03:21;;;;;;;13.77;3.33;;;4.70;99.90;;;;;;5127456;27;20063;-66
2022/03/19 00:05:47;;;;;;;20.70;3.88;;;4.70;99.90;;;;;;5107396;28;20035;-66
2022/03/19 00:08:16;;;;;;;20.33;3.90;;;4.70;99.90;;;;;;5106843;28;20062;-66
2022/03/19 00:10:42;;;;;;;26.15;4.18;;;4.80;99.90;;;;;;5107229;28;20104;-66
2022/03/19 00:13:09;;;;;;;27.02;3.95;;;4.70;99.90;;;;;;5107221;28;20124;-66
2022/03/19 00:15:39;;;;;;;19.65;3.70;;;4.70;99.90;;;;;;5107124;28;20043;-66
2022/03/19 00:18:05;;;;;;;21.15;3.35;;;4.70;99.90;;;;;;5107270;28;20052;-66
2022/03/19 00:20:32;;;;;;;24.98;4.63;;;4.60;99.90;;;;;;5107474;28;20081;-66
2022/03/19 00:22:58;;;;;;;22.15;3.63;;;4.60;99.90;;;;;;5107990;28;20032;-66
2022/03/19 00:25:24;;;;;;;31.45;3.50;;;4.60;99.90;;;;;;5116374;27;20058;-66
2022/03/19 00:27:50;;;;;;;20.20;3.60;;;4.60;99.90;;;;;;5122715;27;20086;-66
2022/03/19 00:30:15;;;;;;;19.67;3.25;;;4.50;99.90;;;;;;5123971;27;20100;-66
2022/03/19 00:32:41;;;;;;;26.45;3.42;;;4.50;99.90;;;;;;5104895;28;20568;-66
2022/03/19 00:35:08;;;;;;;23.27;3.60;;;4.40;99.90;;;;;;5114849;27;20036;-66
2022/03/19 00:37:48;;;;;;;21.98;3.17;;;4.30;99.90;;;;;;5106978;28;20043;-66
2022/03/19 00:40:16;;;;;;;24.27;3.20;;;4.30;99.90;;;;;;5094612;28;20123;-66
2022/03/19 00:42:42;;;;;;;24.52;3.58;;;4.30;99.90;;;;;;5123530;27;20051;-66
2022/03/19 00:45:09;;;;;;;25.40;3.10;;;4.30;99.90;;;;;;5116696;27;20559;-66
2022/03/19 00:47:35;;;;;;;18.33;2.83;;;4.20;99.90;;;;;;5108448;28;20075;-66
2022/03/19 00:50:02;;;;;;;18.88;2.83;;;4.10;99.90;;;;;;5106421;28;20135;-67
2022/03/19 00:52:28;;;;;;;20.88;3.00;;;4.10;99.90;;;;;;5107601;28;20053;-66
2022/03/19 00:54:54;;;;;;;21.13;2.97;;;4.00;99.90;;;;;;5107125;27;20126;-66
2022/03/19 00:57:19;;;;;;;28.17;3.58;;;4.00;99.90;;;;;;5119196;27;20101;-66
2022/03/19 00:59:45;;;;;;;17.10;2.97;;;4.00;99.90;;;;;;5106873;28;20455;-66
2022/03/19 01:02:11;;;;;;;25.77;3.53;;;4.00;99.90;;;;;;5105342;28;20042;-66
2022/03/19 01:04:39;;;;;;;17.67;2.95;;;3.90;99.90;;;;;;5108807;27;20039;-66
2022/03/19 01:07:05;;;;;;;18.23;3.03;;;4.00;99.90;;;;;;5114943;27;20581;-66
2022/03/19 01:09:31;;;;;;;32.45;3.47;;;3.90;99.90;;;;;;5107658;27;20039;-66
2022/03/19 01:11:57;;;;;;;23.30;3.05;;;4.00;99.90;;;;;;5104832;28;20044;-66
2022/03/19 01:14:23;;;;;;;20.25;2.85;;;4.00;99.90;;;;;;5107109;28;20043;-66
2022/03/19 01:16:48;;;;;;;24.17;3.20;;;4.00;99.90;;;;;;5106276;28;20055;-66
2022/03/19 01:19:14;;;;;;;22.90;5.13;;;4.00;99.90;;;;;;5119349;27;20051;-66
2022/03/19 01:21:40;;;;;;;25.63;3.47;;;4.00;99.90;;;;;;5116006;27;20035;-66
2022/03/19 01:24:06;;;;;;;16.73;3.00;;;4.00;99.90;;;;;;5106169;28;20131;-66
2022/03/19 01:26:33;;;;;;;14.13;2.90;;;4.00;99.90;;;;;;5107530;28;20525;-67
2022/03/19 01:28:58;;;;;;;23.13;3.58;;;4.00;99.90;;;;;;5111862;27;20091;-67
2022/03/19 01:31:27;;;;;;;23.70;3.58;;;4.00;99.90;;;;;;5111794;27;20040;-66
2022/03/19 01:33:53;;;;;;;21.50;4.45;;;4.20;99.90;;;;;;5104762;28;20095;-66
2022/03/19 01:36:19;;;;;;;21.25;3.67;;;4.30;99.90;;;;;;5106972;28;20044;-66
2022/03/19 01:38:45;;;;;;;32.38;4.10;;;4.40;99.90;;;;;;5108571;27;20447;-66
2022/03/19 01:41:10;;;;;;;21.45;3.50;;;4.50;99.90;;;;;;5104997;28;20043;-66
2022/03/19 01:43:37;;;;;;;20.17;3.42;;;4.60;99.90;;;;;;5107190;28;20035;-66
2022/03/19 01:46:03;;;;;;;23.75;3.72;;;4.70;99.90;;;;;;5105681;28;20345;-66
2022/03/19 01:48:29;;;;;;;19.33;3.50;;;4.70;99.90;;;;;;5107003;28;20032;-66
2022/03/19 01:50:55;;;;;;;27.10;3.60;;;4.70;99.90;;;;;;5105253;28;20408;-67
2022/03/19 01:53:21;;;;;;;28.23;4.22;;;4.80;99.90;;;;;;5107037;28;20055;-66
2022/03/19 01:55:46;;;;;;;22.50;3.85;;;4.80;99.90;;;;;;5106180;28;20032;-66
2022/03/19 01:58:12;;;;;;;26.75;3.90;;;4.90;99.90;;;;;;5105217;28;20047;-66
2022/03/19 02:00:38;;;;;;;22.50;3.65;;;5.00;99.90;;;;;;5107411;28;20032;-67
2022/03/19 02:03:06;;;;;;;26.10;4.35;;;5.00;99.90;;;;;;5106509;28;20043;-66
2022/03/19 02:05:32;;;;;;;24.98;3.30;;;5.00;99.90;;;;;;5106529;28;20524;-66
2022/03/19 02:07:58;;;;;;;22.48;4.57;;;5.00;99.90;;;;;;5105633;28;20035;-66
2022/03/19 02:10:24;;;;;;;25.20;4.10;;;5.10;99.90;;;;;;5105089;28;20193;-66
2022/03/19 02:12:52;;;;;;;22.77;3.70;;;5.00;99.90;;;;;;5117237;28;20054;-66
2022/03/19 02:15:18;;;;;;;26.92;4.25;;;5.00;99.90;;;;;;5105399;28;20048;-66
2022/03/19 02:17:44;;;;;;;15.13;4.00;;;5.00;99.90;;;;;;5104678;28;20040;-66
2022/03/19 02:20:11;;;;;;;32.80;4.68;;;5.00;99.90;;;;;;5106065;28;20047;-66
2022/03/19 02:22:37;;;;;;;22.58;4.10;;;5.00;99.90;;;;;;5118042;28;20051;-66
2022/03/19 02:27:49;;;;;;;17.65;4.10;;;5.00;99.90;;;;;;5107051;28;20046;-66
2022/03/19 02:30:16;;;;;;;20.60;5.22;;;4.90;99.90;;;;;;5104413;28;20047;-67
2022/03/19 02:32:44;;;;;;;25.02;4.97;;;4.80;99.90;;;;;;5107088;28;20485;-66
2022/03/19 02:35:10;;;;;;;20.77;4.10;;;4.80;99.90;;;;;;5104782;28;20395;-66
2022/03/19 02:37:44;;;;;;;27.10;5.40;;;4.80;99.90;;;;;;5108444;28;20058;-67
2022/03/19 02:40:15;;;;;;;27.95;4.85;;;4.80;99.90;;;;;;5095731;28;20228;-67
2022/03/19 02:42:41;;;;;;;28.70;5.25;;;4.80;99.90;;;;;;5114424;27;20562;-66
2022/03/19 02:45:08;;;;;;;26.38;5.00;;;4.80;99.90;;;;;;5109294;28;20081;-66
2022/03/19 02:47:56;;;;;;;21.48;5.07;;;4.80;99.90;;;;;;5108642;27;20043;-66
2022/03/19 02:50:20;;;;;;;21.25;4.70;;;4.80;99.90;;;;;;5109117;28;20189;-66
2022/03/19 02:52:46;;;;;;;24.52;4.80;;;4.70;99.90;;;;;;5114112;27;20067;-66
2022/03/19 02:55:11;;;;;;;30.52;5.85;;;4.70;99.90;;;;;;5109029;28;20567;-66
2022/03/19 02:57:37;;;;;;;27.75;5.63;;;4.70;99.90;;;;;;5091366;28;20528;-66
2022/03/19 03:00:03;;;;;;;32.42;5.55;;;4.80;99.90;;;;;;5090501;28;20100;-66
2022/03/19 03:02:29;;;;;;;30.23;5.78;;;4.70;99.90;;;;;;5110506;27;20055;-66
2022/03/19 03:04:55;;;;;;;26.08;6.20;;;4.70;99.90;;;;;;5108368;28;20040;-66
2022/03/19 03:07:21;;;;;;;27.42;5.68;;;4.60;99.90;;;;;;5108779;28;20124;-67
2022/03/19 03:09:48;;;;;;;23.42;6.10;;;4.60;99.90;;;;;;5109349;28;20040;-66
2022/03/19 03:12:14;;;;;;;33.92;6.57;;;4.60;99.90;;;;;;5114182;27;20095;-66
2022/03/19 03:14:39;;;;;;;30.13;7.43;;;4.60;99.90;;;;;;5109091;28;20427;-66
2022/03/19 03:17:05;;;;;;;31.50;7.25;;;4.70;99.90;;;;;;5108636;28;20447;-66
2022/03/19 03:19:32;;;;;;;33.38;7.03;;;4.70;99.90;;;;;;5109384;28;20067;-66
2022/03/19 03:21:58;;;;;;;31.80;6.95;;;4.70;99.90;;;;;;5108349;27;20040;-66
2022/03/19 03:24:25;;;;;;;35.55;6.30;;;4.70;99.90;;;;;;5106036;28;21005;-66
2022/03/19 03:26:51;;;;;;;33.22;6.15;;;4.70;99.90;;;;;;5108534;28;20398;-67
2022/03/19 03:29:17;;;;;;;27.60;5.93;;;4.70;99.90;;;;;;5109220;28;20043;-66
2022/03/19 03:31:43;;;;;;;27.13;6.25;;;4.60;99.90;;;;;;5109937;27;20067;-66
2022/03/19 03:34:09;;;;;;;21.45;5.65;;;4.70;99.90;;;;;;5109287;27;20122;-66
2022/03/19 03:36:35;;;;;;;32.78;5.72;;;4.70;99.90;;;;;;5109321;28;20330;-66
2022/03/19 03:39:01;;;;;;;23.52;5.30;;;4.60;99.90;;;;;;5107966;28;20075;-66
2022/03/19 03:41:27;;;;;;;23.48;5.82;;;4.70;99.90;;;;;;5108961;28;20039;-66
2022/03/19 03:43:53;;;;;;;23.75;5.78;;;4.60;99.90;;;;;;5109232;27;20590;-66
2022/03/19 03:46:19;;;;;;;26.08;5.53;;;4.60;99.90;;;;;;5109066;28;20082;-66
2022/03/19 03:48:44;;;;;;;24.58;5.68;;;4.60;99.90;;;;;;5107299;28;20130;-66
2022/03/19 03:51:14;;;;;;;31.63;5.72;;;4.60;99.90;;;;;;5106935;28;20101;-66
2022/03/19 03:53:40;;;;;;;27.40;6.00;;;4.60;99.90;;;;;;5109075;27;20071;-66
2022/03/19 03:56:09;;;;;;;22.52;5.43;;;4.60;99.90;;;;;;5106859;27;20051;-67
2022/03/19 03:58:35;;;;;;;19.42;5.20;;;4.60;99.90;;;;;;5107268;28;20043;-66
2022/03/19 04:01:01;;;;;;;23.77;5.32;;;4.60;99.90;;;;;;5107671;27;20055;-66
2022/03/19 04:03:26;;;;;;;24.85;5.85;;;4.50;99.90;;;;;;5107346;28;20092;-66
2022/03/19 04:05:52;;;;;;;21.75;5.93;;;4.40;99.90;;;;;;5108913;27;20123;-66
2022/03/19 04:08:19;;;;;;;21.77;5.82;;;4.40;99.90;;;;;;5107307;28;20036;-66
2022/03/19 04:10:45;;;;;;;32.58;6.57;;;4.30;99.90;;;;;;5108718;28;20082;-66
2022/03/19 04:13:11;;;;;;;24.40;6.65;;;4.30;99.90;;;;;;5106276;28;20094;-66
2022/03/19 04:15:37;;;;;;;31.45;7.00;;;4.20;99.90;;;;;;5113785;27;20054;-66
2022/03/19 04:18:02;;;;;;;21.40;6.68;;;4.20;99.90;;;;;;5105944;28;20050;-66
2022/03/19 04:20:28;;;;;;;27.25;7.03;;;4.20;99.90;;;;;;5108016;28;20055;-66
2022/03/19 04:22:54;;;;;;;28.38;7.22;;;4.20;99.90;;;;;;5106757;27;20067;-66
2022/03/19 04:25:22;;;;;;;26.20;7.53;;;4.20;99.90;;;;;;5108204;27;20074;-66
2022/03/19 04:27:52;;;;;;;37.55;8.25;;;4.30;99.90;;;;;;5108365;27;20036;-66
2022/03/19 04:30:20;;;;;;;25.35;7.40;;;4.20;99.90;;;;;;5107987;27;20051;-66
2022/03/19 04:32:55;;;;;;;31.17;8.50;;;4.30;99.90;;;;;;5112013;27;20402;-66
2022/03/19 04:38:08;;;;;;;29.85;9.80;;;4.30;99.90;;;;;;5105695;28;20040;-66
2022/03/19 04:40:35;;;;;;;31.98;8.52;;;4.20;99.90;;;;;;5107033;28;20478;-66
2022/03/19 04:43:01;;;;;;;30.65;9.07;;;4.20;99.90;;;;;;5107663;28;20123;-66
2022/03/19 04:45:28;;;;;;;30.35;10.30;;;4.10;99.90;;;;;;5108129;28;20036;-66
2022/03/19 04:47:53;;;;;;;33.17;9.52;;;4.10;99.90;;;;;;5106551;27;21023;-66
2022/03/19 04:50:20;;;;;;;37.88;11.07;;;4.20;99.90;;;;;;5107783;27;20056;-66
2022/03/19 04:52:47;;;;;;;29.95;8.68;;;4.10;99.90;;;;;;5106431;28;20051;-66
2022/03/19 04:55:13;;;;;;;26.83;9.95;;;4.00;99.90;;;;;;5115403;27;20540;-66
2022/03/19 04:57:39;;;;;;;35.25;9.48;;;4.00;99.90;;;;;;5096922;28;20462;-66
2022/03/19 05:00:07;;;;;;;26.63;9.23;;;4.00;99.90;;;;;;5106952;28;20527;-66
2022/03/19 05:02:33;;;;;;;32.47;9.90;;;3.90;99.90;;;;;;5107375;27;20044;-66
2022/03/19 05:05:00;;;;;;;26.88;9.55;;;3.90;99.90;;;;;;5105596;28;20050;-66
2022/03/19 05:07:26;;;;;;;37.58;10.27;;;3.90;99.90;;;;;;5106007;28;20126;-66
2022/03/19 05:12:39;;;;;;;30.00;9.93;;;3.80;99.90;;;;;;5107269;28;20036;-66
2022/03/19 05:15:06;;;;;;;29.98;10.07;;;3.70;99.90;;;;;;5107072;28;20405;-66
2022/03/19 05:17:31;;;;;;;32.72;10.10;;;3.80;99.90;;;;;;5107790;27;20070;-66
2022/03/19 05:19:57;;;;;;;29.80;10.05;;;3.70;99.90;;;;;;5072426;28;20385;-66
2022/03/19 05:22:23;;;;;;;31.17;9.63;;;3.70;99.90;;;;;;5105676;28;20045;-66
2022/03/19 05:24:49;;;;;;;28.27;9.65;;;3.70;99.90;;;;;;5107873;28;20063;-67
2022/03/19 05:27:15;;;;;;;31.75;10.35;;;3.70;99.90;;;;;;5106005;27;20086;-66
2022/03/19 05:29:40;;;;;;;31.73;10.52;;;3.60;99.90;;;;;;5140122;27;20039;-66
2022/03/19 05:32:09;;;;;;;29.85;9.32;;;3.60;99.90;;;;;;5106102;28;20048;-66
2022/03/19 05:34:35;;;;;;;29.50;9.02;;;3.60;99.90;;;;;;5106072;28;20059;-66
2022/03/19 05:37:03;;;;;;;29.85;9.43;;;3.50;99.90;;;;;;5106231;27;20035;-66
2022/03/19 05:39:30;;;;;;;27.95;9.05;;;3.50;99.90;;;;;;5087413;28;20048;-66
2022/03/19 05:41:55;;;;;;;24.50;9.30;;;3.50;99.90;;;;;;5106040;28;20040;-66
2022/03/19 05:44:21;;;;;;;24.48;9.10;;;3.50;99.90;;;;;;5106087;28;20048;-66
2022/03/19 05:46:48;;;;;;;28.13;9.95;;;3.50;99.90;;;;;;5106777;28;20140;-67
2022/03/19 05:49:14;;;;;;;26.42;10.23;;;3.50;99.90;;;;;;5106536;27;20115;-66
2022/03/19 05:51:40;;;;;;;34.08;10.45;;;3.60;99.90;;;;;;5139596;27;20498;-67
2022/03/19 05:54:06;;;;;;;31.38;10.07;;;3.60;99.90;;;;;;5106488;28;20066;-66
2022/03/19 05:56:32;;;;;;;24.23;9.95;;;3.60;99.90;;;;;;5104646;28;20079;-67
2022/03/19 05:58:58;;;;;;;30.55;10.23;;;3.70;99.90;;;;;;5115115;28;20046;-67
2022/03/19 06:01:27;;;;;;;30.60;9.32;;;3.70;99.90;;;;;;5111146;27;20051;-66
2022/03/19 06:03:57;;;;;;;22.77;8.82;;;3.80;99.90;;;;;;5107710;28;20084;-66
2022/03/19 06:06:28;;;;;;;22.60;9.10;;;3.80;99.90;;;;;;5105605;28;20918;-66
2022/03/19 06:08:53;;;;;;;;;;;3.80;99.90;;;;;;5110457;28;20096;-66
2022/03/19 06:11:20;;;;;;;25.60;8.25;;;3.90;99.90;;;;;;5118343;27;20373;-66
2022/03/19 06:13:46;;;;;;;25.00;8.25;;;3.90;99.90;;;;;;5109110;28;20040;-66
2022/03/19 06:16:12;;;;;;;22.35;8.07;;;3.90;99.90;;;;;;5110876;28;20115;-66
2022/03/19 06:18:38;;;;;;;24.33;7.65;;;3.80;99.90;;;;;;5109464;28;20091;-66
2022/03/19 06:21:04;;;;;;;26.27;8.02;;;3.90;99.90;;;;;;5110644;28;20039;-66
2022/03/19 06:23:30;;;;;;;32.80;8.73;;;3.90;99.90;;;;;;5111817;27;20091;-66
2022/03/19 06:25:56;;;;;;;25.70;8.35;;;4.10;99.90;;;;;;5114579;27;20127;-67
2022/03/19 06:28:22;;;;;;;23.52;8.07;;;4.30;99.90;;;;;;5109742;28;20032;-66
2022/03/19 06:30:48;;;;;;;29.33;8.05;;;4.40;99.90;;;;;;5113126;27;20227;-66
2022/03/19 06:33:14;;;;;;;24.77;8.25;;;4.40;99.90;;;;;;5108432;28;20117;-66
2022/03/19 06:38:28;;;;;;;21.30;7.03;;;4.50;99.90;;;;;;5096965;27;20048;-66
2022/03/19 06:40:55;;;;;;;26.27;6.82;;;4.70;99.90;;;;;;5114037;27;20039;-66
2022/03/19 06:43:21;;;;;;;24.25;7.18;;;5.10;99.90;;;;;;5110785;28;20043;-66
2022/03/19 06:45:47;;;;;;;21.35;6.70;;;5.60;99.90;;;;;;5109576;27;20036;-66
2022/03/19 06:48:13;;;;;;;29.20;7.03;;;5.80;99.90;;;;;;5111067;27;20051;-66
2022/03/19 06:50:39;;;;;;;26.42;6.72;;;5.80;99.90;;;;;;5107899;28;20062;-66
2022/03/19 06:53:05;;;;;;;24.95;6.78;;;5.60;99.90;;;;;;5109276;28;20051;-66
2022/03/19 06:55:32;;;;;;;26.10;6.80;;;5.50;99.90;;;;;;5110252;28;20047;-66
2022/03/19 06:57:58;;;;;;;35.05;6.60;;;5.30;99.90;;;;;;5107281;28;20048;-66
2022/03/19 07:00:27;;;;;;;24.77;6.38;;;5.30;99.90;;;;;;5110460;28;20047;-67
2022/03/19 07:02:55;;;;;;;20.70;5.95;;;5.20;99.90;;;;;;5108468;27;20096;-66
2022/03/19 07:05:22;;;;;;;24.38;6.03;;;5.20;99.90;;;;;;5108936;28;20054;-66
2022/03/19 07:07:48;;;;;;;17.50;5.65;;;5.20;99.90;;;;;;5105748;28;20047;-66
2022/03/19 07:10:15;;;;;;;15.52;5.35;;;5.30;99.90;;;;;;5108888;28;20130;-67
2022/03/19 07:12:43;;;;;;;16.50;5.47;;;5.30;99.90;;;;;;5107758;28;20081;-66
2022/03/19 07:15:12;;;;;;;15.25;5.95;;;5.40;99.90;;;;;;5107687;28;20493;-66
2022/03/19 07:17:38;;;;;;;22.27;6.53;;;5.40;99.90;;;;;;5109432;28;20136;-66
2022/03/19 07:20:04;;;;;;;20.33;5.95;;;5.40;99.90;;;;;;5108248;28;20570;-66
2022/03/19 07:22:52;;;;;;;22.08;5.70;;;5.50;99.90;;;;;;5108250;28;20092;-66
2022/03/19 07:25:19;;;;;;;20.58;6.00;;;5.50;99.90;;;;;;5109615;28;20394;-66
2022/03/19 07:27:45;;;;;;;24.33;6.00;;;5.60;99.90;;;;;;5105555;28;20059;-66
2022/03/19 07:30:12;;;;;;;22.50;5.15;;;5.70;99.90;;;;;;5109606;28;20043;-66
2022/03/19 07:32:38;;;;;;;15.85;5.70;;;5.70;99.90;;;;;;5106122;27;20043;-66
2022/03/19 07:35:06;;;;;;;21.48;5.63;;;5.80;99.90;;;;;;5109406;28;20036;-66
2022/03/19 07:37:37;;;;;;;17.02;5.22;;;5.90;99.90;;;;;;5106908;28;20094;-67
2022/03/19 07:40:04;;;;;;;25.90;6.00;;;6.00;99.90;;;;;;5109423;28;20503;-66
2022/03/19 07:42:30;;;;;;;20.25;5.13;;;6.00;99.90;;;;;;5108858;28;20139;-66
2022/03/19 07:44:55;;;;;;;22.67;5.93;;;6.10;99.90;;;;;;5106934;28;20067;-67
2022/03/19 07:47:21;;;;;;;32.58;8.55;;;6.30;99.90;;;;;;5109290;28;20714;-69
2022/03/19 07:49:47;;;;;;;26.85;6.00;;;6.30;99.90;;;;;;5106898;28;20062;-69
2022/03/19 07:52:13;;;;;;;21.75;5.50;;;6.30;99.90;;;;;;5109487;28;20371;-69
2022/03/19 07:54:39;;;;;;;19.65;4.82;;;6.40;99.90;;;;;;5085325;28;20074;-69
2022/03/19 07:57:06;;;;;;;24.48;5.85;;;6.50;99.90;;;;;;5108634;28;20397;-69
2022/03/19 07:59:33;;;;;;;18.98;5.82;;;6.60;99.90;;;;;;5106088;28;20497;-69
2022/03/19 08:01:59;;;;;;;22.70;4.82;;;6.70;99.90;;;;;;5107916;27;20482;-68
2022/03/19 08:04:25;;;;;;;26.92;5.68;;;6.70;99.90;;;;;;5108983;28;20036;-69
2022/03/19 08:06:55;;;;;;;19.52;5.03;;;6.80;99.90;;;;;;5105619;28;20114;-69
2022/03/19 08:09:23;;;;;;;19.27;5.97;;;6.90;99.90;;;;;;5107321;28;20058;-69
2022/03/19 08:11:49;;;;;;;29.48;4.82;;;6.90;99.90;;;;;;5106969;28;20039;-70
2022/03/19 08:14:16;;;;;;;20.25;5.00;;;6.90;99.90;;;;;;5107182;28;20073;-69
2022/03/19 08:16:42;;;;;;;26.63;4.93;;;7.00;99.90;;;;;;5105702;28;20398;-69
2022/03/19 08:19:11;;;;;;;24.00;6.25;;;7.00;99.90;;;;;;5108118;28;20051;-69
2022/03/19 08:21:38;;;;;;;19.33;5.13;;;7.10;99.90;;;;;;5107434;28;20048;-68
2022/03/19 08:24:08;;;;;;;15.52;4.88;;;7.20;99.90;;;;;;5106257;28;20132;-69
2022/03/19 08:26:34;;;;;;;27.77;5.43;;;7.30;99.90;;;;;;5108867;28;20418;-69
2022/03/19 08:29:02;;;;;;;20.25;6.10;;;7.30;99.90;;;;;;5105930;28;20047;-70
2022/03/19 08:31:28;;;;;;;23.73;4.10;;;7.50;99.90;;;;;;5108634;28;20403;-69
2022/03/19 08:33:55;;;;;;;22.48;4.68;;;7.60;99.90;;;;;;5105040;28;20051;-69
2022/03/19 08:36:21;;;;;;;26.65;5.28;;;7.60;99.90;;;;;;5108223;28;20686;-69
2022/03/19 08:41:32;;;;;;;16.63;4.40;;;7.80;99.90;;;;;;5106390;28;20047;-69
2022/03/19 08:43:58;;;;;;;16.50;3.95;;;7.90;99.90;;;;;;5107620;28;20044;-69
2022/03/19 08:46:24;;;;;;;19.40;4.20;;;7.90;99.90;;;;;;5088529;28;20050;-69
2022/03/19 08:48:50;;;;;;;16.70;4.38;;;8.00;99.90;;;;;;5106360;28;20027;-69
2022/03/19 08:54:03;;;;;;;26.23;4.80;;;8.10;99.90;;;;;;5106623;28;20044;-69
2022/03/19 08:56:30;;;;;;;17.00;4.13;;;8.10;99.90;;;;;;5107708;28;20402;-69
2022/03/19 08:58:56;;;;;;;21.10;4.28;;;8.20;99.90;;;;;;5138686;27;20107;-69
2022/03/19 09:01:22;;;;;;;15.20;4.40;;;8.30;99.90;;;;;;5089342;28;20477;-69
2022/03/19 09:03:47;;;;;;;21.17;4.35;;;8.40;99.90;;;;;;5106055;28;20153;-71
2022/03/19 09:06:14;;;;;;;24.73;5.00;;;8.50;99.90;;;;;;5089739;28;20051;-69
2022/03/19 09:08:45;;;;;;;26.63;5.05;;;8.40;99.90;;;;;;5106201;28;20047;-69
2022/03/19 09:11:11;;;;;;;25.13;4.30;;;8.50;99.90;;;;;;5106593;28;20066;-69
2022/03/19 09:13:38;;;;;;;22.58;4.50;;;8.60;99.90;;;;;;5107681;28;20039;-69
2022/03/19 09:16:04;;;;;;;23.50;5.45;;;8.70;99.90;;;;;;5106086;28;20043;-69
2022/03/19 09:18:30;;;;;;;27.40;4.85;;;8.70;99.90;;;;;;5107775;28;20032;-70
2022/03/19 09:20:57;;;;;;;22.33;4.40;;;8.70;99.90;;;;;;5105098;28;20482;-69
2022/03/19 09:23:23;;;;;;;25.83;4.88;;;8.70;99.90;;;;;;5107759;28;20043;-68
2022/03/19 09:25:49;;;;;;;27.90;4.97;;;8.80;99.90;;;;;;5104001;28;20122;-69
2022/03/19 09:28:15;;;;;;;18.65;3.95;;;8.90;99.90;;;;;;5107637;28;20043;-69
2022/03/19 09:30:41;;;;;;;15.75;3.78;;;8.90;99.90;;;;;;5106967;28;20107;-69
2022/03/19 09:33:07;;;;;;;20.25;4.50;;;9.10;99.90;;;;;;5103685;28;20105;-69
2022/03/19 09:35:34;;;;;;;20.75;3.97;;;9.20;99.90;;;;;;5105902;28;20067;-69
2022/03/19 09:37:59;;;;;;;18.92;4.15;;;9.30;99.90;;;;;;5105351;28;20119;-69
2022/03/19 09:40:25;;;;;;;16.48;4.07;;;9.30;99.90;;;;;;5107087;28;20066;-69
2022/03/19 09:42:53;;;;;;;17.52;3.70;;;9.50;99.90;;;;;;5103404;28;20039;-69
2022/03/19 09:45:21;;;;;;;25.15;4.22;;;9.60;99.90;;;;;;5107236;28;20396;-69
2022/03/19 09:47:48;;;;;;;15.65;3.13;;;9.60;99.90;;;;;;5105940;28;20040;-69
2022/03/19 09:50:14;;;;;;;18.45;3.58;;;9.70;99.90;;;;;;5106349;28;20044;-69
2022/03/19 09:52:42;;;;;;;12.07;3.22;;;9.60;99.90;;;;;;5107351;28;20047;-69
2022/03/19 09:55:13;;;;;;;12.05;3.03;;;9.60;99.90;;;;;;5103143;28;20545;-69
2022/03/19 09:57:39;;;;;;;17.58;2.95;;;9.70;99.90;;;;;;5107203;28;20079;-69
2022/03/19 10:00:05;;;;;;;17.98;2.85;;;9.80;99.90;;;;;;5104611;28;20082;-69
2022/03/19 10:02:31;;;;;;;10.52;2.40;;;10.00;99.90;;;;;;5107344;28;20071;-69
2022/03/19 10:04:57;;;;;;;13.77;2.90;;;10.00;99.90;;;;;;5105279;28;20857;-68
2022/03/19 10:10:10;;;;;;;11.98;3.20;;;10.40;99.90;;;;;;5106365;28;20048;-69
2022/03/19 10:12:38;;;;;;;19.83;3.58;;;10.30;99.90;;;;;;5105394;28;20449;-68
2022/03/19 10:15:10;;;;;;;14.05;2.70;;;10.40;99.90;;;;;;5103791;28;20098;-69
2022/03/19 10:17:40;;;;;;;15.25;3.47;;;10.50;99.90;;;;;;5101762;28;20075;-69
2022/03/19 10:20:11;;;;;;;11.35;2.70;;;10.70;99.90;;;;;;5105154;28;20089;-69
2022/03/19 10:22:45;;;;;;;8.90;2.38;;;10.70;99.90;;;;;;5102390;28;20044;-69
2022/03/19 10:25:13;;;;;;;12.40;2.22;;;10.50;99.90;;;;;;5105161;28;20028;-69
2022/03/19 10:27:40;;;;;;;7.35;2.10;;;10.50;99.90;;;;;;5106695;28;20512;-69
2022/03/19 10:30:19;;;;;;;9.48;2.03;;;10.60;99.90;;;;;;5103503;28;20046;-69
2022/03/19 10:33:06;;;;;;;11.32;2.45;;;10.70;99.90;;;;;;5106704;28;20050;-69
2022/03/19 10:35:34;;;;;;;6.95;2.13;;;10.80;99.90;;;;;;5105763;28;20047;-69
2022/03/19 10:38:19;;;;;;;8.30;1.55;;;10.80;99.90;;;;;;5105747;28;20039;-69
2022/03/19 10:40:47;;;;;;;6.65;1.45;;;10.80;97.70;;;;;;5106760;28;20177;-69
2022/03/19 10:43:16;;;;;;;2.78;1.52;;;10.80;99.90;;;;;;5104848;28;20435;-69
2022/03/19 10:45:49;;;;;;;8.88;2.25;;;10.90;99.90;;;;;;5106531;28;20118;-69
2022/03/19 10:48:23;;;;;;;7.65;2.00;;;11.00;99.90;;;;;;5105435;28;20047;-69
2022/03/19 10:50:50;;;;;;;7.90;1.33;;;11.20;99.90;;;;;;5105623;28;20054;-69
2022/03/19 10:53:18;;;;;;;5.63;1.50;;;11.20;99.90;;;;;;5106930;28;20397;-69
2022/03/19 10:55:45;;;;;;;9.95;3.05;;;11.30;97.60;;;;;;5105040;28;20055;-69
2022/03/19 10:58:11;;;;;;;5.95;1.67;;;11.40;98.00;;;;;;5107675;28;20437;-69
2022/03/19 11:00:37;;;;;;;6.90;2.15;;;11.40;94.40;;;;;;5108926;28;20110;-69
2022/03/19 11:03:11;;;;;;;6.28;1.40;;;11.40;99.90;;;;;;5109797;28;20567;-69
2022/03/19 11:05:39;;;;;;;6.85;1.95;;;11.60;99.90;;;;;;5109302;28;20106;-69
2022/03/19 11:08:07;;;;;;;4.95;1.70;;;11.60;99.90;;;;;;5107511;28;20425;-69
2022/03/19 11:10:35;;;;;;;2.67;1.40;;;11.60;96.60;;;;;;5109739;28;20083;-69
2022/03/19 11:13:02;;;;;;;6.00;1.45;;;11.50;97.00;;;;;;5108082;28;20645;-70
2022/03/19 11:15:33;;;;;;;2.08;1.08;;;11.50;98.20;;;;;;5110491;28;20047;-69
2022/03/19 11:18:03;;;;;;;4.47;1.10;;;11.50;95.90;;;;;;5107816;28;20111;-70
2022/03/19 11:20:30;;;;;;;1.83;1.05;;;11.60;94.90;;;;;;5105358;28;20051;-69
2022/03/19 11:22:59;;;;;;;6.78;1.40;;;11.70;93.30;;;;;;5108364;27;20080;-69
2022/03/19 11:25:27;;;;;;;7.05;1.48;;;11.60;91.60;;;;;;5109000;28;20094;-69
2022/03/19 11:28:06;;;;;;;4.25;1.00;;;11.60;93.90;;;;;;5109332;28;20039;-69
2022/03/19 11:30:45;;;;;;;5.82;1.40;;;11.60;92.80;;;;;;5108372;28;20054;-69
2022/03/19 11:33:17;;;;;;;5.72;1.60;;;11.60;95.10;;;;;;5106901;28;20146;-69
2022/03/19 11:35:46;;;;;;;4.57;1.58;;;11.70;95.70;;;;;;5108295;28;20043;-69
2022/03/19 11:38:20;;;;;;;6.97;1.42;;;11.80;95.40;;;;;;5107045;28;20043;-69
2022/03/19 11:40:54;;;;;;;8.45;2.15;;;11.90;95.00;;;;;;5109618;28;20044;-70
2022/03/19 11:43:32;;;;;;;9.02;1.73;;;11.90;95.60;;;;;;5107910;28;20042;-69
2022/03/19 11:46:12;;;;;;;6.18;1.92;;;12.00;96.30;;;;;;5108476;28;20051;-70
2022/03/19 11:48:46;;;;;;;7.90;1.90;;;11.90;95.80;;;;;;5092547;28;20093;-69
2022/03/19 11:51:34;;;;;;;4.80;1.38;;;12.00;99.90;;;;;;5141420;27;20397;-69
2022/03/19 11:54:12;;;;;;;11.85;1.85;;;12.20;95.00;;;;;;5097153;28;20055;-69
2022/03/19 11:56:41;;;;;;;6.28;1.90;;;12.20;94.30;;;;;;5105722;28;20053;-69
2022/03/19 11:59:21;;;;;;;9.32;2.03;;;12.00;92.40;;;;;;5109219;28;20128;-69
2022/03/19 12:01:58;;;;;;;7.10;2.20;;;12.00;95.00;;;;;;5089692;28;20042;-69
2022/03/19 12:04:25;;;;;;;5.97;1.42;;;12.10;99.90;;;;;;5108515;28;20047;-69
2022/03/19 12:06:57;;;;;;;13.45;2.20;;;12.20;94.60;;;;;;5109011;28;20035;-69
2022/03/19 12:09:52;;;;;;;6.40;1.58;;;12.20;92.50;;;;;;5106584;28;20486;-70
2022/03/19 12:12:24;;;;;;;9.38;2.40;;;12.10;95.90;;;;;;5107924;28;20075;-69
2022/03/19 12:14:50;;;;;;;5.70;1.48;;;12.00;94.00;;;;;;5107818;28;20100;-69
2022/03/19 12:17:26;;;;;;;10.32;2.15;;;12.00;95.70;;;;;;5107350;28;20048;-70
2022/03/19 12:20:02;;;;;;;8.10;2.53;;;12.10;92.70;;;;;;5108967;28;20419;-69
2022/03/19 12:22:36;;;;;;;5.85;1.67;;;12.10;94.90;;;;;;5105465;28;20481;-69
2022/03/19 12:25:10;;;;;;;10.40;1.92;;;12.10;90.30;;;;;;5108593;28;20051;-70
2022/03/19 12:27:36;;;;;;;5.03;1.58;;;12.10;86.90;;;;;;5106369;28;20042;-69
2022/03/19 12:30:02;;;;;;;6.68;2.38;;;12.20;91.20;;;;;;5107905;28;20079;-70
2022/03/19 12:32:28;;;;;;;8.02;1.50;;;12.20;92.50;;;;;;5106334;28;20466;-69
2022/03/19 12:34:58;;;;;;;5.85;1.70;;;12.30;91.80;;;;;;5106943;28;20058;-69
2022/03/19 12:37:24;;;;;;;3.67;1.45;;;12.30;88.00;;;;;;5107839;28;20083;-69
2022/03/19 12:40:01;;;;;;;7.15;1.58;;;12.30;83.50;;;;;;5108355;27;20082;-69
2022/03/19 12:42:34;;;;;;;9.70;1.85;;;12.30;84.60;;;;;;5105189;27;20051;-69
2022/03/19 12:45:03;;;;;;;3.75;1.40;;;12.20;86.20;;;;;;5105745;28;20443;-69
2022/03/19 12:47:29;;;;;;;8.63;1.70;;;12.20;90.40;;;;;;5104697;28;20047;-69
2022/03/19 12:49:55;;;;;;;6.32;1.70;;;12.30;91.60;;;;;;5107245;28;20394;-69
2022/03/19 12:52:22;;;;;;;2.55;1.27;;;12.20;87.90;;;;;;5106485;27;20056;-69
2022/03/19 12:54:51;;;;;;;4.50;1.77;;;12.20;91.80;;;;;;5107861;28;20071;-69
2022/03/19 12:57:23;;;;;;;5.43;1.27;;;12.30;89.80;;;;;;5105969;28;20435;-69
2022/03/19 12:59:57;;;;;;;6.35;1.73;;;12.40;89.00;;;;;;5106592;28;20481;-69
2022/03/19 13:02:24;;;;;;;6.93;1.52;;;12.40;90.70;;;;;;5106313;28;20404;-69
2022/03/19 13:04:50;;;;;;;5.95;2.00;;;12.40;88.70;;;;;;5106264;27;20044;-68
2022/03/19 13:07:22;;;;;;;8.50;2.00;;;12.30;91.20;;;;;;5106608;28;20646;-68